Latest Coastal Weather Observations for Roebourne Airport

IDW60701

Issued at 11:12 am WST Tuesday 25 June 2024 (issued every 10 minutes, with the page automatically refreshed every 10 minutes)

About coastal observations | Map of coastal stations | Coastal observations for WA | Marine services | Other Formats
Station Details ID: 004090 Name: ROEBOURNE AERO Lat: -20.76 Lon: 117.16 Height: 10.7 m
Data from the previous 72 hours. | See also: Recent months at Roebourne Airport
Date/Time
WST
Wind Sea
Height
m
Swell Vis
km
Cloud Weather Temp
°C
Press
MSL
hPa
Rain since
9am
mm
Dir  Spd
kts
Gust
kts
Height
m
Period
s
Dir
25/11:00am NE 12 16 - - - - - - - 25.1 1015.7 0.0
25/10:30am ENE 14 18 - - - - - - - 23.9 1015.8 0.0
25/10:00am ENE 15 19 - - - - - - - 24.3 1016.0 0.0
25/09:30am E 12 16 - - - - - - - 23.2 1016.2 0.0
25/09:00am E 11 13 - - - - - - - 22.4 1016.0 0.0
25/08:30am E 9 12 - - - - - - - 20.8 1015.8 0.0
25/08:00am ESE 9 11 - - - - - - - 20.0 1015.6 0.0
25/07:30am ESE 4 5 - - - - - - - 17.7 1015.4 0.0
25/07:00am SE 4 5 - - - - - - - 16.2 1015.0 0.0
25/06:30am SSE 5 5 - - - - - - - 15.9 1014.6 0.0
25/06:00am SSW 5 5 - - - - - - - 16.0 1014.3 0.0
25/05:30am S 4 4 - - - - - - - 15.7 1014.2 0.0
25/05:00am SSW 4 5 - - - - - - - 15.2 1014.2 0.0
25/04:30am SSW 4 5 - - - - - - - 15.1 1014.2 0.0
25/04:00am CALM 0 0 - - - - - - - 14.8 1014.4 0.0
25/03:30am CALM 0 0 - - - - - - - 14.8 1014.3 0.0
25/03:00am S 4 4 - - - - - - - 15.0 1014.4 0.0
25/02:30am SSE 5 5 - - - - - - - 14.5 1014.5 0.0
25/02:00am W 3 5 - - - - - - - 15.2 1014.8 0.0
25/01:30am WSW 4 4 - - - - - - - 15.7 1015.1 0.0
25/01:00am ENE 3 5 - - - - - - - 15.8 1015.3 0.0
25/12:30am ENE 3 4 - - - - - - - 15.5 1015.2 0.0
25/12:00am CALM 0 0 - - - - - - - 15.9 1015.2 0.0
 
Date/Time
WST
Wind Sea
Height
m
Swell Vis
km
Cloud Weather Temp
°C
Press
MSL
hPa
Rain since
9am
mm
Dir  Spd
kts
Gust
kts
Height
m
Period
s
Dir
24/11:30pm CALM 0 0 - - - - - - - 16.9 1015.3 0.0
24/11:00pm CALM 0 0 - - - - - - - 17.3 1015.5 0.0
24/10:30pm SSE 1 3 - - - - - - - 17.8 1015.7 0.0
24/10:00pm S 4 5 - - - - - - - 17.7 1015.9 0.0
24/09:30pm SSE 4 5 - - - - - - - 17.6 1015.9 0.0
24/09:00pm S 4 4 - - - - - - - 18.5 1016.0 0.0
24/08:30pm N 1 4 - - - - - - - 18.8 1015.9 0.0
24/08:00pm N 4 6 - - - - - - - 19.8 1015.6 0.0
24/07:30pm NNW 6 7 - - - - - - - 20.7 1015.4 0.0
24/07:00pm N 6 7 - - - - - - - 21.7 1015.3 0.0
24/06:30pm N 5 6 - - - - - - - 22.3 1015.4 0.0
24/06:00pm N 6 7 - - - - - - - 23.2 1015.2 0.0
24/05:30pm N 9 11 - - - - - - - 24.3 1015.0 0.0
24/05:00pm NNE 11 14 - - - - - - - 25.2 1015.1 0.0
24/04:30pm NNE 13 16 - - - - - - - 26.0 1014.9 0.0
24/04:00pm NNE 13 16 - - - - - - - 26.8 1015.0 0.0
24/03:30pm N 12 15 - - - - - - - 26.8 1015.2 0.0
24/03:00pm NNE 12 16 - - - - - - - 27.6 1015.2 0.0
24/02:30pm NE 13 17 - - - - - - - 28.4 1015.4 0.0
24/02:00pm NE 12 16 - - - - - - - 28.3 1015.6 0.0
24/01:30pm NE 12 16 - - - - - - - 28.4 1016.1 0.0
24/01:00pm NE 12 17 - - - - - - - 27.7 1016.5 0.0
24/12:30pm NE 13 18 - - - - - - - 28.0 1016.9 0.0
24/12:00pm ENE 13 18 - - - - - - - 27.2 1017.4 0.0
24/11:30am ENE 13 19 - - - - - - - 27.0 1017.9 0.0
24/11:00am E 14 19 - - - - - - - 26.9 1018.3 0.0
24/10:30am E 13 19 - - - - - - - 26.2 1018.5 0.0
24/10:00am E 12 16 - - - - - - - 25.7 1018.7 0.0
24/09:30am ESE 14 18 - - - - - - - 24.7 1018.8 0.0
24/09:00am ESE 13 17 - - - - - - - 24.0 1018.8 0.0
24/08:30am ESE 11 15 - - - - - - - 23.4 1018.6 0.0
24/08:00am SE 9 11 - - - - - - - 22.3 1018.5 0.0
24/07:30am SE 7 8 - - - - - - - 18.7 1018.2 0.0
24/07:00am SE 8 9 - - - - - - - 17.1 1017.8 0.0
24/06:30am SE 8 9 - - - - - - - 17.9 1017.4 0.0
24/06:00am SE 9 10 - - - - - - - 19.0 1017.0 0.0
24/05:30am SE 9 11 - - - - - - - 18.6 1016.8 0.0
24/05:00am SSE 6 7 - - - - - - - 16.0 1016.8 0.0
24/04:30am SE 6 8 - - - - - - - 16.9 1016.7 0.0
24/04:00am SSE 5 6 - - - - - - - 16.2 1016.6 0.0
24/03:30am SSE 6 6 - - - - - - - 16.8 1016.5 0.0
24/03:00am SSE 7 9 - - - - - - - 18.4 1016.7 0.0
24/02:30am SE 6 8 - - - - - - - 17.1 1017.1 0.0
24/02:00am ESE 7 8 - - - - - - - 17.1 1017.5 0.0
24/01:30am S 7 7 - - - - - - - 16.8 1017.5 0.0
24/01:00am SSW 6 7 - - - - - - - 17.1 1017.6 0.0
24/12:30am SW 7 8 - - - - - - - 17.4 1017.6 0.0
24/12:00am SW 5 6 - - - - - - - 17.6 1017.8 0.0
 
Date/Time
WST
Wind Sea
Height
m
Swell Vis
km
Cloud Weather Temp
°C
Press
MSL
hPa
Rain since
9am
mm
Dir  Spd
kts
Gust
kts
Height
m
Period
s
Dir
23/11:30pm SW 5 5 - - - - - - - 17.7 1017.8 0.0
23/11:00pm SSW 5 6 - - - - - - - 17.8 1017.9 0.0
23/10:30pm SSW 5 6 - - - - - - - 18.4 1018.0 0.0
23/10:00pm SSW 6 7 - - - - - - - 18.4 1018.1 0.0
23/09:30pm SSW 6 7 - - - - - - - 18.2 1017.8 0.0
23/09:00pm SSW 5 7 - - - - - - - 18.5 1017.8 0.0
23/08:30pm CALM 0 0 - - - - - - - 19.2 1017.7 0.0
23/08:00pm SW 5 7 - - - - - - - 19.7 1017.7 0.0
23/07:30pm WNW 2 4 - - - - - - - 20.4 1017.4 0.0
23/07:00pm CALM 0 0 - - - - - - - 20.8 1017.1 0.0
23/06:30pm N 4 5 - - - - - - - 22.3 1016.9 0.0
23/06:00pm N 7 8 - - - - - - - 23.3 1016.6 0.0
23/05:30pm N 8 11 - - - - - - - 25.0 1016.5 0.0
23/05:00pm N 11 14 - - - - - - - 26.3 1016.2 0.0
23/04:30pm N 11 14 - - - - - - - 27.1 1016.3 0.0
23/04:00pm N 13 15 - - - - - - - 27.2 1016.4 0.0
23/03:30pm NNE 14 17 - - - - - - - 27.7 1016.4 0.0
23/03:00pm NNE 15 18 - - - - - - - 28.4 1016.5 0.0
23/02:30pm NNE 15 18 - - - - - - - 28.0 1016.6 0.0
23/02:00pm NNE 15 18 - - - - - - - 28.7 1016.9 0.0
23/01:30pm NE 13 17 - - - - - - - 29.1 1017.2 0.0
23/01:00pm NE 13 17 - - - - - - - 29.1 1017.8 0.0
23/12:30pm NE 15 19 - - - - - - - 28.8 1018.0 0.0
23/12:00pm NE 16 20 - - - - - - - 29.3 1018.6 0.0
23/11:30am ENE 15 22 - - - - - - - 28.9 1019.1 0.0
23/11:00am E 11 16 - - - - - - - 28.5 1019.4 0.0
23/10:30am E 11 15 - - - - - - - 27.4 1019.6 0.0
23/10:00am E 11 15 - - - - - - - 26.7 1019.8 0.0
23/09:30am E 11 14 - - - - - - - 25.7 1020.0 0.0
23/09:00am ENE 5 7 - - - - - - - 23.7 1019.9 0.0
23/08:30am SE 3 6 - - - - - - - 21.6 1019.8 0.0
23/08:00am S 5 6 - - - - - - - 18.4 1019.4 0.0
23/07:30am SSW 5 6 - - - - - - - 15.7 1019.2 0.0
23/07:00am SSW 5 6 - - - - - - - 14.2 1018.8 0.0
23/06:30am SSW 5 7 - - - - - - - 14.4 1018.4 0.0
23/06:00am SSW 4 5 - - - - - - - 14.1 1018.3 0.0
23/05:30am SW 3 4 - - - - - - - 14.1 1018.0 0.0
23/05:00am SW 4 5 - - - - - - - 14.3 1017.9 0.0
23/04:30am SW 1 3 - - - - - - - 13.8 1017.8 0.0
23/04:00am SW 3 3 - - - - - - - 14.4 1017.8 0.0
23/03:30am SW 1 4 - - - - - - - 14.6 1018.0 0.0
23/03:00am SW 2 3 - - - - - - - 15.8 1017.9 0.0
23/02:30am SSW 3 4 - - - - - - - 15.9 1018.1 0.0
23/02:00am SSW 5 6 - - - - - - - 16.1 1018.3 0.0
23/01:30am SSW 5 6 - - - - - - - 15.8 1018.4 0.0
23/01:00am CALM 0 0 - - - - - - - 15.8 1018.5 0.0
23/12:30am SSW 3 3 - - - - - - - 16.4 1018.4 0.0
23/12:00am S 5 5 - - - - - - - 16.6 1018.8 0.0
 
Date/Time
WST
Wind Sea
Height
m
Swell Vis
km
Cloud Weather Temp
°C
Press
MSL
hPa
Rain since
9am
mm
Dir  Spd
kts
Gust
kts
Height
m
Period
s
Dir
22/11:30pm S 6 7 - - - - - - - 17.3 1018.9 0.0
22/11:00pm SSW 6 6 - - - - - - - 17.6 1018.8 0.0
22/10:30pm SSW 4 5 - - - - - - - 18.2 1018.5 0.0
22/10:00pm SSE 4 4 - - - - - - - 18.6 1018.4 0.0
22/09:30pm S 5 5 - - - - - - - 18.2 1018.3 0.0
22/09:00pm SE 3 4 - - - - - - - 18.7 1018.2 0.0
22/08:30pm SE 5 6 - - - - - - - 18.6 1017.9 0.0
22/08:00pm SSE 4 5 - - - - - - - 19.0 1017.9 0.0
22/07:30pm CALM 0 3 - - - - - - - 20.8 1017.7 0.0
22/07:00pm N 3 4 - - - - - - - 22.0 1017.4 0.0
22/06:30pm N 2 4 - - - - - - - 22.5 1017.3 0.0
22/06:00pm N 6 7 - - - - - - - 23.0 1017.1 0.0
22/05:30pm NNE 8 10 - - - - - - - 24.6 1017.0 0.0
22/05:00pm NNE 10 13 - - - - - - - 26.1 1016.9 0.0
22/04:30pm NNE 10 13 - - - - - - - 27.1 1016.8 0.0
22/04:00pm NNE 11 15 - - - - - - - 27.5 1016.8 0.0
22/03:30pm NNE 13 16 - - - - - - - 28.1 1016.7 0.0
22/03:00pm NNE 13 16 - - - - - - - 28.9 1016.6 0.0
22/02:30pm NE 15 19 - - - - - - - 29.5 1016.7 0.0
22/02:00pm ENE 15 23 - - - - - - - 29.5 1017.0 0.0
22/01:30pm ENE 16 21 - - - - - - - 29.7 1017.4 0.0
22/01:00pm ENE 16 21 - - - - - - - 28.8 1018.0 0.0
22/12:30pm ENE 16 21 - - - - - - - 28.6 1018.6 0.0
22/12:00pm ENE 15 19 - - - - - - - 28.4 1018.9 0.0
22/11:30am ENE 14 19 - - - - - - - 28.0 1019.4 0.0

Other formats

Comma delimited format used in spreadsheet applications
http://www.bom.gov.au/fwo/IDW60701/IDW60701.94308.axf

JavaScript Object Notation format (JSON) in row-major order
http://www.bom.gov.au/fwo/IDW60701/IDW60701.94308.json

Data quality

Most of these data are generated automatically and are frequently updated. Quality checks on data are not normally performed. It is possible for incorrect values to appear. Refer to information at About Latest Weather Observations and please check the disclaimer before using these data.